createdAt,value
2023-04-29T00:02:12.395Z,991
2023-04-29T00:08:02.052Z,991
2023-04-29T00:13:02.046Z,991
2023-04-29T00:18:02.133Z,991
2023-04-29T00:23:02.108Z,991
2023-04-29T00:28:12.333Z,991
2023-04-29T00:33:12.386Z,991
2023-04-29T00:39:02.084Z,991
2023-04-29T00:44:12.360Z,991
2023-04-29T00:50:02.070Z,991
2023-04-29T00:55:02.077Z,991
2023-04-29T01:00:02.154Z,991
2023-04-29T01:05:12.361Z,992
2023-04-29T01:10:12.355Z,992
2023-04-29T01:15:12.358Z,992
2023-04-29T01:20:12.385Z,992
2023-04-29T01:25:12.390Z,992
2023-04-29T01:30:12.416Z,992
2023-04-29T01:36:02.072Z,992
2023-04-29T01:41:02.090Z,992
2023-04-29T01:46:02.122Z,992
2023-04-29T01:51:12.370Z,992
2023-04-29T01:57:02.114Z,992
2023-04-29T02:02:02.105Z,992
2023-04-29T02:07:12.342Z,992
2023-04-29T02:12:12.354Z,992
2023-04-29T02:17:12.389Z,992
2023-04-29T02:23:02.095Z,992
2023-04-29T02:28:02.090Z,992
2023-04-29T02:33:02.172Z,992
2023-04-29T02:38:12.377Z,992
2023-04-29T02:43:12.353Z,992
2023-04-29T02:49:02.098Z,992
2023-04-29T02:54:02.115Z,992
2023-04-29T02:59:12.346Z,992
2023-04-29T03:04:12.528Z,992
2023-04-29T03:10:02.087Z,992
2023-04-29T03:15:02.113Z,992
2023-04-29T03:20:02.117Z,992
2023-04-29T03:25:02.160Z,992
2023-04-29T03:30:12.345Z,992
2023-04-29T03:35:14.843Z,992
2023-04-29T03:41:02.143Z,992
2023-04-29T03:46:02.145Z,992
2023-04-29T03:51:02.117Z,992
2023-04-29T03:56:12.382Z,992
2023-04-29T04:02:02.171Z,992
2023-04-29T04:07:02.117Z,992
2023-04-29T04:12:12.375Z,992
2023-04-29T04:18:02.139Z,992
2023-04-29T04:23:02.128Z,993
2023-04-29T04:28:12.419Z,993
2023-04-29T04:34:02.118Z,993
2023-04-29T04:39:02.102Z,993
2023-04-29T04:44:12.389Z,993
2023-04-29T04:50:02.097Z,993
2023-04-29T04:55:02.152Z,993
2023-04-29T05:00:02.128Z,993
2023-04-29T05:05:12.365Z,993
2023-04-29T05:10:12.401Z,993
2023-04-29T05:16:02.848Z,993
2023-04-29T05:21:02.124Z,993
2023-04-29T05:26:02.136Z,993
2023-04-29T05:31:12.431Z,993
2023-04-29T05:37:02.111Z,994
2023-04-29T05:42:02.101Z,994
2023-04-29T05:47:02.178Z,994
2023-04-29T05:52:12.379Z,994
2023-04-29T05:57:12.404Z,994
2023-04-29T06:03:02.246Z,994
2023-04-29T06:08:12.515Z,994
2023-04-29T06:14:02.118Z,994
2023-04-29T06:19:02.124Z,994
2023-04-29T06:24:02.150Z,994
2023-04-29T06:29:12.441Z,994
2023-04-29T06:35:02.106Z,994
2023-04-29T06:40:12.394Z,994
2023-04-29T06:46:02.135Z,995
2023-04-29T06:51:02.208Z,995
2023-04-29T06:56:02.206Z,995
2023-04-29T07:01:12.471Z,995
2023-04-29T07:06:12.441Z,995
2023-04-29T07:12:02.119Z,995
2023-04-29T07:17:02.184Z,995
2023-04-29T07:22:02.124Z,995
2023-04-29T07:27:12.408Z,995
2023-04-29T07:32:12.416Z,995
2023-04-29T07:38:02.142Z,995
2023-04-29T07:43:12.401Z,995
2023-04-29T07:49:02.143Z,995
2023-04-29T07:54:02.152Z,995
2023-04-29T07:59:12.389Z,995
2023-04-29T08:04:12.540Z,995
2023-04-29T08:10:02.144Z,995
2023-04-29T08:15:02.152Z,995
2023-04-29T08:20:12.457Z,996
2023-04-29T08:25:12.447Z,996
2023-04-29T08:31:02.215Z,996
2023-04-29T08:36:12.414Z,996
2023-04-29T08:41:12.453Z,996
2023-04-29T08:47:02.111Z,996
2023-04-29T08:52:02.166Z,996
2023-04-29T08:57:12.399Z,996
2023-04-29T09:02:12.428Z,996
2023-04-29T09:08:02.135Z,996
2023-04-29T09:13:02.152Z,996
2023-04-29T09:18:02.274Z,996
2023-04-29T09:23:12.455Z,996
2023-04-29T09:29:02.147Z,996
2023-04-29T09:34:02.225Z,996
2023-04-29T09:39:12.459Z,996
2023-04-29T09:44:12.418Z,996
2023-04-29T09:49:12.441Z,996
2023-04-29T10:00:02.152Z,996
2023-04-29T10:05:02.261Z,996
2023-04-29T10:10:12.423Z,997
2023-04-29T10:16:02.192Z,997
2023-04-29T10:21:02.155Z,997
2023-04-29T10:26:02.140Z,997
2023-04-29T10:31:12.412Z,997
2023-04-29T10:36:12.417Z,997
2023-04-29T10:42:02.163Z,997
2023-04-29T10:47:12.445Z,997
2023-04-29T10:52:12.431Z,997
2023-04-29T10:58:02.134Z,997
2023-04-29T11:03:02.348Z,997
2023-04-29T11:08:12.447Z,997
2023-04-29T11:13:12.453Z,997
2023-04-29T11:19:02.143Z,997
2023-04-29T11:24:02.193Z,997
2023-04-29T11:29:12.452Z,997
2023-04-29T11:35:02.205Z,997
2023-04-29T11:40:12.610Z,997
2023-04-29T11:45:12.508Z,997
2023-04-29T11:50:12.454Z,997
2023-04-29T11:56:02.164Z,997
2023-04-29T12:01:02.166Z,997
2023-04-29T12:06:02.175Z,997
2023-04-29T12:11:12.446Z,997
2023-04-29T12:16:12.501Z,997
2023-04-29T12:22:02.190Z,997
2023-04-29T12:27:12.466Z,997
2023-04-29T12:33:02.217Z,997
2023-04-29T12:38:12.461Z,997
2023-04-29T12:43:12.501Z,997
2023-04-29T12:49:02.194Z,997
2023-04-29T12:54:02.207Z,997
2023-04-29T12:59:02.192Z,997
2023-04-29T13:04:12.520Z,997
2023-04-29T13:09:18.293Z,997
2023-04-29T13:15:02.181Z,997
2023-04-29T13:20:12.486Z,997
2023-04-29T13:26:02.166Z,997
2023-04-29T13:31:12.486Z,997
2023-04-29T13:36:12.487Z,997
2023-04-29T13:41:16.465Z,997
2023-04-29T13:47:02.337Z,997
2023-04-29T13:53:04.284Z,997
2023-04-29T14:03:02.217Z,997
2023-04-29T14:08:02.385Z,998
2023-04-29T14:13:12.456Z,997
2023-04-29T14:19:03.745Z,998
2023-04-29T14:24:12.448Z,998
2023-04-29T14:30:02.209Z,998
2023-04-29T14:35:12.473Z,998
2023-04-29T14:40:12.483Z,998
2023-04-29T14:45:12.474Z,998
2023-04-29T14:51:02.203Z,998
2023-04-29T14:56:02.201Z,998
2023-04-29T15:01:02.197Z,998
2023-04-29T15:06:02.209Z,998
2023-04-29T15:11:12.485Z,998
2023-04-29T15:17:02.199Z,998
2023-04-29T15:22:02.217Z,998
2023-04-29T15:27:12.473Z,998
2023-04-29T15:32:12.526Z,998
2023-04-29T15:38:02.190Z,998
2023-04-29T15:43:02.202Z,998
2023-04-29T15:48:02.326Z,998
2023-04-29T15:53:12.494Z,998
2023-04-29T15:59:02.197Z,998
2023-04-29T16:04:02.334Z,998
2023-04-29T16:09:12.716Z,998
2023-04-29T16:15:02.216Z,998
2023-04-29T16:20:12.468Z,998
2023-04-29T16:26:02.210Z,998
2023-04-29T16:31:02.269Z,998
2023-04-29T16:36:12.495Z,998
2023-04-29T16:41:12.504Z,998
2023-04-29T16:47:02.216Z,998
2023-04-29T16:52:02.263Z,998
2023-04-29T16:58:02.197Z,998
2023-04-29T17:03:02.301Z,998
2023-04-29T17:08:12.534Z,998
2023-04-29T17:13:12.508Z,998
2023-04-29T17:19:02.228Z,998
2023-04-29T17:24:02.231Z,998
2023-04-29T17:29:02.229Z,998
2023-04-29T17:34:02.236Z,998
2023-04-29T17:39:12.478Z,998
2023-04-29T17:44:12.496Z,998
2023-04-29T17:49:12.534Z,998
2023-04-29T17:54:12.540Z,998
2023-04-29T18:00:02.248Z,998
2023-04-29T18:05:12.512Z,998
2023-04-29T18:10:12.504Z,998
2023-04-29T18:16:02.239Z,998
2023-04-29T18:21:12.515Z,998
2023-04-29T18:27:02.229Z,998
2023-04-29T18:32:02.396Z,998
2023-04-29T18:37:12.505Z,998
2023-04-29T18:43:02.247Z,998
2023-04-29T18:48:02.254Z,998
2023-04-29T18:53:02.235Z,999
2023-04-29T18:58:02.280Z,999
2023-04-29T19:03:12.496Z,999
2023-04-29T19:09:02.244Z,999
2023-04-29T19:14:02.265Z,999
2023-04-29T19:19:12.529Z,999
2023-04-29T19:24:12.518Z,999
2023-04-29T19:30:02.205Z,999
2023-04-29T19:35:02.224Z,999
2023-04-29T19:40:02.251Z,999
2023-04-29T19:45:12.741Z,999
2023-04-29T19:50:12.544Z,999
2023-04-29T19:56:02.254Z,999
2023-04-29T20:01:12.576Z,999
2023-04-29T20:11:12.531Z,999
2023-04-29T20:16:12.618Z,999
2023-04-29T20:22:02.266Z,999
2023-04-29T20:27:12.546Z,999
2023-04-29T20:33:02.280Z,999
2023-04-29T20:38:12.532Z,999
2023-04-29T20:44:02.244Z,999
2023-04-29T20:49:12.554Z,999
2023-04-29T20:55:02.226Z,999
2023-04-29T21:00:02.281Z,999
2023-04-29T21:05:02.347Z,999
2023-04-29T21:10:12.542Z,999
2023-04-29T21:15:12.551Z,999
2023-04-29T21:21:02.257Z,999
2023-04-29T21:26:12.532Z,999
2023-04-29T21:31:12.576Z,999
2023-04-29T21:37:02.264Z,999
2023-04-29T21:42:12.538Z,999
2023-04-29T21:48:02.278Z,999
2023-04-29T21:53:15.226Z,999
2023-04-29T21:59:02.270Z,999
2023-04-29T22:04:12.534Z,999
2023-04-29T22:10:02.251Z,999
2023-04-29T22:15:24.684Z,999
2023-04-29T22:21:02.295Z,1000
2023-04-29T22:26:12.572Z,999
2023-04-29T22:32:02.338Z,1000
2023-04-29T22:37:12.536Z,1000
2023-04-29T22:42:12.545Z,1000
2023-04-29T22:48:02.319Z,1000
2023-04-29T22:53:02.280Z,1000
2023-04-29T22:58:12.521Z,1000
2023-04-29T23:03:12.550Z,1000
2023-04-29T23:09:02.246Z,1000
2023-04-29T23:14:02.280Z,1000
2023-04-29T23:19:12.543Z,1000
2023-04-29T23:24:12.551Z,1000
2023-04-29T23:30:02.308Z,1000
2023-04-29T23:35:02.303Z,1000
2023-04-29T23:40:12.573Z,1000
2023-04-29T23:46:02.351Z,1000
2023-04-29T23:51:12.527Z,1000
2023-04-29T23:56:12.567Z,1000
